Alma, Illinois
Current Conditions -  °F | °C
As of 7:35 PM on Sunday 23 Nov 2014 (Local Time) from KENL Reporting Station
Light Rain Light Rain  
Wind Chill: 52°   Ceiling: 600
Heat Index: 52°   Visibility: 7mi
Dew Point: 50°   Wind: 3mph
Humidity: 94%   Direction: 220°SW
Pressure: 29.27"   Gusts: NA
Location:  38.72°N, 88.91°W
Report Text: KENL 240135Z AUTO 22003KT 7SM -RA BKN006 OVC012 11/10 A2927 RMK AO2 P0004 T01100100
Loading
Personal Weather Stations






























Interactive Weather Map New forecast layout! Learn more

10-Day Weather Forecast

Advertisements
Track Severe Weather on mobile